Alexandria, AL

1:46 AM CDT on September 22, 2014 (GMT -0500)
Coldwater | Change Station
CLOSE
Current Station
Personal Weather Station
Location: Eastaboga, AL
Elevation: 623 ft
Nearby Weather Stations

Elev 623 ft 33.62 °N, 85.94 °W | Updated 7 minutes ago

Overcast
Overcast
70.1 °F
Feels Like 70.1 °F
N
0.0
Wind Variable Wind from NE
Gusts 3.0 mph

Today
High -- | Low -- °F
--% Chance of Precip.
Yesterday
High -- | Low -- °F
Precip. -- in
6:31 AM 6:40 PM
Waning Crescent, 4% visible
Pressure 29.97 in
Visibility 10.0 miles
Clouds Scattered Clouds 4000 ft
Mostly Cloudy 5000 ft
Overcast 6500 ft
Dew Point 69 °F
Humidity 96%
Rainfall 0.00 in
Snow Depth Not available.
UV 0 out of 12
Pollen 7.40 out of 12
Ozone Good
PM2.5 Moderate
Flu Activity Not available.
METAR KANB 220553Z AUTO 18004KT 10SM -RA SCT040 BKN050 OVC065 23/20 A3000 RMK AO2 RAB38 SLP148 P0000 60000 T02280200 10267 20211 403170161 53003

More Conditions Fewer Conditions

Pressure 29.97 in
Visibility 10.0 miles
Clouds Scattered Clouds 4000 ft
Mostly Cloudy 5000 ft
Overcast 6500 ft
Dew Point 69 °F
Humidity 96%
Rainfall 0.00 in
Snow Depth Not available.
UV 0 out of 12
Pollen 7.40 out of 12
Ozone Good
PM2.5 Moderate
Flu Activity Not available.
METAR KANB 220553Z AUTO 18004KT 10SM -RA SCT040 BKN050 OVC065 23/20 A3000 RMK AO2 RAB38 SLP148 P0000 60000 T02280200 10267 20211 403170161 53003

More Conditions Fewer Conditions

10-Day Weather Forecast

Almanac

Astronomy

Sep. 22, 2014 Rise Set
Actual Time 6:31 AM CDT 6:40 PM CDT
Civil Twilight 6:06 AM CDT 7:05 PM CDT
Nautical Twilight 5:37 AM CDT 7:34 PM CDT
Astronomical Twilight 5:08 AM CDT 8:03 PM CDT
Moon 5:02 AM CDT 5:45 PM CDT
Length of Visible Light 12h 58m
Length of Day
12h 08m
Tomorrow will be 2m 5s shorter.
Waning Crescent, 4% of the Moon is Illuminated
Today
Waning Crescent
Sep 24
New
Oct 1
First Quarter
Oct 8
Full
Oct 15
Last Quarter

Today's Extremes

State Highs State Lows

Community

WunderPhotos

Upload Photos

1,755,392 photos uploaded!

Nearby

Air Quality

  Air Quality AQ Index Pollutant
Yesterday Good
PM10
Yesterday Good
OZONE
Current Moderate
PM2.5
Current Good
OZONE
Monday Good
OZONE
Monday Good
PM2.5

Snow Depth

Station Depth Elevation
No new snow has been reported.

Earthquake Activity

City Distance Mag. Time & Date
Sweetwater, Tennessee 153 miles 2.5 2:54 PM CDT
2014-09-20
Minimum magnitude displayed is 2.5.

Coastal Water Temperatures

Place Temperature
No Stations Reporting

Nearby Weather Stations